sensor_id;sensor_type;location;lat;lon;timestamp;pressure;altitude;pressure_sealevel;temperature;humidity
66945;BME280;53853;51.982;5.928;2022-10-16T00:01:59;100886.81;;;13.70;77.08
66945;BME280;53853;51.982;5.928;2022-10-16T00:04:32;100882.47;;;13.69;77.26
66945;BME280;53853;51.982;5.928;2022-10-16T00:07:02;100893.34;;;13.68;77.01
66945;BME280;53853;51.982;5.928;2022-10-16T00:09:32;100887.97;;;13.68;77.13
66945;BME280;53853;51.982;5.928;2022-10-16T00:12:02;100888.97;;;13.67;77.18
66945;BME280;53853;51.982;5.928;2022-10-16T00:14:33;100892.84;;;13.64;77.23
66945;BME280;53853;51.982;5.928;2022-10-16T00:17:03;100885.00;;;13.63;77.14
66945;BME280;53853;51.982;5.928;2022-10-16T00:19:35;100890.19;;;13.64;77.19
66945;BME280;53853;51.982;5.928;2022-10-16T00:22:05;100887.50;;;13.64;77.27
66945;BME280;53853;51.982;5.928;2022-10-16T00:24:36;100891.16;;;13.63;77.18
66945;BME280;53853;51.982;5.928;2022-10-16T00:27:06;100891.16;;;13.63;77.18
66945;BME280;53853;51.982;5.928;2022-10-16T00:29:35;100884.13;;;13.62;77.43
66945;BME280;53853;51.982;5.928;2022-10-16T00:32:05;100882.31;;;13.63;77.28
66945;BME280;53853;51.982;5.928;2022-10-16T00:34:37;100885.00;;;13.63;77.52
66945;BME280;53853;51.982;5.928;2022-10-16T00:37:08;100884.28;;;13.61;77.39
66945;BME280;53853;51.982;5.928;2022-10-16T00:39:37;100884.47;;;13.59;77.41
66945;BME280;53853;51.982;5.928;2022-10-16T00:42:09;100885.31;;;13.59;77.57
66945;BME280;53853;51.982;5.928;2022-10-16T00:44:48;100893.53;;;13.58;77.57
66945;BME280;53853;51.982;5.928;2022-10-16T00:47:23;100895.34;;;13.57;77.82
66945;BME280;53853;51.982;5.928;2022-10-16T00:50:00;100888.34;;;13.56;78.03
66945;BME280;53853;51.982;5.928;2022-10-16T00:52:32;100891.19;;;13.55;77.93
66945;BME280;53853;51.982;5.928;2022-10-16T00:55:03;100893.00;;;13.54;77.93
66945;BME280;53853;51.982;5.928;2022-10-16T00:57:34;100886.00;;;13.53;78.01
66945;BME280;53853;51.982;5.928;2022-10-16T01:00:07;100888.66;;;13.53;77.79
66945;BME280;53853;51.982;5.928;2022-10-16T01:02:37;100884.31;;;13.52;78.30
66945;BME280;53853;51.982;5.928;2022-10-16T01:05:09;100892.34;;;13.52;78.01
66945;BME280;53853;51.982;5.928;2022-10-16T01:07:47;100892.50;;;13.51;78.21
66945;BME280;53853;51.982;5.928;2022-10-16T01:10:29;100897.69;;;13.52;78.22
66945;BME280;53853;51.982;5.928;2022-10-16T01:13:04;100904.91;;;13.52;78.34
66945;BME280;53853;51.982;5.928;2022-10-16T01:15:40;100902.22;;;13.52;78.24
66945;BME280;53853;51.982;5.928;2022-10-16T01:18:15;100905.91;;;13.51;78.10
66945;BME280;53853;51.982;5.928;2022-10-16T01:20:52;100896.22;;;13.50;78.46
66945;BME280;53853;51.982;5.928;2022-10-16T01:23:35;100889.81;;;13.51;78.30
66945;BME280;53853;51.982;5.928;2022-10-16T01:26:17;100879.97;;;13.51;78.29
66945;BME280;53853;51.982;5.928;2022-10-16T01:28:56;100882.81;;;13.50;78.43
66945;BME280;53853;51.982;5.928;2022-10-16T01:31:31;100886.50;;;13.49;78.80
66945;BME280;53853;51.982;5.928;2022-10-16T01:34:05;100887.31;;;13.49;78.73
66945;BME280;53853;51.982;5.928;2022-10-16T01:36:38;100885.66;;;13.48;78.93
66945;BME280;53853;51.982;5.928;2022-10-16T01:39:11;100889.16;;;13.49;78.87
66945;BME280;53853;51.982;5.928;2022-10-16T01:41:46;100893.88;;;13.47;79.40
66945;BME280;53853;51.982;5.928;2022-10-16T01:44:24;100890.00;;;13.49;78.96
66945;BME280;53853;51.982;5.928;2022-10-16T01:46:56;100880.81;;;13.52;79.00
66945;BME280;53853;51.982;5.928;2022-10-16T01:49:27;100886.81;;;13.54;79.12
66945;BME280;53853;51.982;5.928;2022-10-16T01:52:02;100888.34;;;13.56;79.24
66945;BME280;53853;51.982;5.928;2022-10-16T01:54:33;100889.81;;;13.59;79.09
66945;BME280;53853;51.982;5.928;2022-10-16T01:57:06;100880.13;;;13.58;79.35
66945;BME280;53853;51.982;5.928;2022-10-16T01:59:44;100891.50;;;13.60;79.41
66945;BME280;53853;51.982;5.928;2022-10-16T02:02:17;100907.91;;;13.65;79.68
66945;BME280;53853;51.982;5.928;2022-10-16T02:04:53;100915.59;;;13.68;79.69
66945;BME280;53853;51.982;5.928;2022-10-16T02:07:24;100914.44;;;13.71;79.51
66945;BME280;53853;51.982;5.928;2022-10-16T02:09:55;100899.03;;;13.73;79.31
66945;BME280;53853;51.982;5.928;2022-10-16T02:12:27;100894.84;;;13.70;79.36
66945;BME280;53853;51.982;5.928;2022-10-16T02:15:00;100894.84;;;13.70;79.28
66945;BME280;53853;51.982;5.928;2022-10-16T02:17:30;100907.06;;;13.73;79.20
66945;BME280;53853;51.982;5.928;2022-10-16T02:20:00;100905.72;;;13.77;79.16
66945;BME280;53853;51.982;5.928;2022-10-16T02:22:34;100895.66;;;13.79;79.40
66945;BME280;53853;51.982;5.928;2022-10-16T02:25:08;100902.53;;;13.82;79.32
66945;BME280;53853;51.982;5.928;2022-10-16T02:27:44;100899.53;;;13.85;79.42
66945;BME280;53853;51.982;5.928;2022-10-16T02:30:22;100903.03;;;13.85;79.39
66945;BME280;53853;51.982;5.928;2022-10-16T02:32:56;100899.34;;;13.86;79.31
66945;BME280;53853;51.982;5.928;2022-10-16T02:35:28;100903.03;;;13.85;79.16
66945;BME280;53853;51.982;5.928;2022-10-16T02:37:59;100901.34;;;13.84;79.19
66945;BME280;53853;51.982;5.928;2022-10-16T02:40:30;100898.84;;;13.83;78.97
66945;BME280;53853;51.982;5.928;2022-10-16T02:43:00;100903.38;;;13.82;79.16
66945;BME280;53853;51.982;5.928;2022-10-16T02:45:35;100908.91;;;13.81;78.87
66945;BME280;53853;51.982;5.928;2022-10-16T02:48:05;100896.66;;;13.78;78.94
66945;BME280;53853;51.982;5.928;2022-10-16T02:50:35;100903.03;;;13.77;78.98
66945;BME280;53853;51.982;5.928;2022-10-16T02:53:05;100902.19;;;13.76;78.84
66945;BME280;53853;51.982;5.928;2022-10-16T02:55:35;100903.22;;;13.75;78.95
66945;BME280;53853;51.982;5.928;2022-10-16T02:58:05;100913.25;;;13.73;78.92
66945;BME280;53853;51.982;5.928;2022-10-16T03:00:37;100916.94;;;13.72;78.77
66945;BME280;53853;51.982;5.928;2022-10-16T03:03:07;100924.31;;;13.70;79.10
66945;BME280;53853;51.982;5.928;2022-10-16T03:05:37;100924.66;;;13.67;79.06
66945;BME280;53853;51.982;5.928;2022-10-16T03:08:07;100920.13;;;13.68;79.11
66945;BME280;53853;51.982;5.928;2022-10-16T03:10:36;100911.09;;;13.69;79.09
66945;BME280;53853;51.982;5.928;2022-10-16T03:13:06;100908.91;;;13.72;79.17
66945;BME280;53853;51.982;5.928;2022-10-16T03:15:39;100904.88;;;13.76;79.46
66945;BME280;53853;51.982;5.928;2022-10-16T03:18:09;100904.53;;;13.80;79.26
66945;BME280;53853;51.982;5.928;2022-10-16T03:20:38;100890.97;;;13.81;79.28
66945;BME280;53853;51.982;5.928;2022-10-16T03:23:08;100906.22;;;13.81;79.29
66945;BME280;53853;51.982;5.928;2022-10-16T03:25:38;100915.25;;;13.80;79.17
66945;BME280;53853;51.982;5.928;2022-10-16T03:28:08;100927.00;;;13.79;79.12
66945;BME280;53853;51.982;5.928;2022-10-16T03:30:42;100931.47;;;13.78;79.12
66945;BME280;53853;51.982;5.928;2022-10-16T03:33:12;100924.63;;;13.75;79.18
66945;BME280;53853;51.982;5.928;2022-10-16T03:35:42;100923.78;;;13.75;79.31
66945;BME280;53853;51.982;5.928;2022-10-16T03:38:12;100922.97;;;13.74;79.31
66945;BME280;53853;51.982;5.928;2022-10-16T03:40:42;100920.94;;;13.76;79.11
66945;BME280;53853;51.982;5.928;2022-10-16T03:43:11;100921.09;;;13.75;79.40
66945;BME280;53853;51.982;5.928;2022-10-16T03:45:44;100931.81;;;13.75;79.25
66945;BME280;53853;51.982;5.928;2022-10-16T03:48:14;100934.66;;;13.73;79.20
66945;BME280;53853;51.982;5.928;2022-10-16T03:50:44;100933.66;;;13.74;79.40
66945;BME280;53853;51.982;5.928;2022-10-16T03:53:15;100935.53;;;13.74;79.46
66945;BME280;53853;51.982;5.928;2022-10-16T03:55:45;100933.00;;;13.72;79.28
66945;BME280;53853;51.982;5.928;2022-10-16T03:58:15;100932.84;;;13.74;79.37
66945;BME280;53853;51.982;5.928;2022-10-16T04:00:49;100925.97;;;13.71;79.20
66945;BME280;53853;51.982;5.928;2022-10-16T04:03:19;100927.81;;;13.71;79.17
66945;BME280;53853;51.982;5.928;2022-10-16T04:05:50;100936.84;;;13.70;79.20
66945;BME280;53853;51.982;5.928;2022-10-16T04:08:20;100943.22;;;13.69;79.18
66945;BME280;53853;51.982;5.928;2022-10-16T04:10:50;100939.69;;;13.68;79.19
66945;BME280;53853;51.982;5.928;2022-10-16T04:13:20;100946.91;;;13.68;79.18
66945;BME280;53853;51.982;5.928;2022-10-16T04:15:52;100953.09;;;13.68;79.48
66945;BME280;53853;51.982;5.928;2022-10-16T04:18:22;100951.94;;;13.71;79.48
66945;BME280;53853;51.982;5.928;2022-10-16T04:20:54;100965.81;;;13.74;79.35
66945;BME280;53853;51.982;5.928;2022-10-16T04:23:24;100967.16;;;13.79;79.35
66945;BME280;53853;51.982;5.928;2022-10-16T04:25:53;100970.50;;;13.81;79.43
66945;BME280;53853;51.982;5.928;2022-10-16T04:28:23;100970.16;;;13.84;79.38
66945;BME280;53853;51.982;5.928;2022-10-16T04:30:56;100971.84;;;13.85;79.18
66945;BME280;53853;51.982;5.928;2022-10-16T04:33:26;100981.38;;;13.87;79.41
66945;BME280;53853;51.982;5.928;2022-10-16T04:36:00;100983.56;;;13.92;79.21
66945;BME280;53853;51.982;5.928;2022-10-16T04:38:30;100990.59;;;13.93;79.08
66945;BME280;53853;51.982;5.928;2022-10-16T04:41:00;100987.91;;;13.93;79.14
66945;BME280;53853;51.982;5.928;2022-10-16T04:43:30;100988.56;;;13.95;78.93
66945;BME280;53853;51.982;5.928;2022-10-16T04:46:02;100987.75;;;13.94;78.77
66945;BME280;53853;51.982;5.928;2022-10-16T04:48:32;100992.41;;;13.92;78.63
66945;BME280;53853;51.982;5.928;2022-10-16T04:51:02;100996.47;;;13.88;78.73
66945;BME280;53853;51.982;5.928;2022-10-16T04:53:32;100986.91;;;13.86;78.87
66945;BME280;53853;51.982;5.928;2022-10-16T04:56:03;100984.38;;;13.84;78.86
66945;BME280;53853;51.982;5.928;2022-10-16T04:58:33;101000.63;;;13.83;78.88
66945;BME280;53853;51.982;5.928;2022-10-16T05:01:05;100998.97;;;13.82;78.84
66945;BME280;53853;51.982;5.928;2022-10-16T05:03:35;101005.31;;;13.81;78.90
66945;BME280;53853;51.982;5.928;2022-10-16T05:06:06;101011.69;;;13.80;78.97
66945;BME280;53853;51.982;5.928;2022-10-16T05:08:36;101005.97;;;13.83;79.02
66945;BME280;53853;51.982;5.928;2022-10-16T05:11:06;101018.56;;;13.82;79.15
66945;BME280;53853;51.982;5.928;2022-10-16T05:13:35;101007.84;;;13.82;79.05
66945;BME280;53853;51.982;5.928;2022-10-16T05:16:08;101017.88;;;13.80;78.96
66945;BME280;53853;51.982;5.928;2022-10-16T05:18:38;101006.47;;;13.78;78.82
66945;BME280;53853;51.982;5.928;2022-10-16T05:21:08;101023.75;;;13.75;79.11
66945;BME280;53853;51.982;5.928;2022-10-16T05:23:38;101033.44;;;13.68;79.38
66945;BME280;53853;51.982;5.928;2022-10-16T05:26:08;101032.94;;;13.65;79.35
66945;BME280;53853;51.982;5.928;2022-10-16T05:28:38;101041.78;;;13.65;79.21
66945;BME280;53853;51.982;5.928;2022-10-16T05:31:10;101043.16;;;13.61;79.20
66945;BME280;53853;51.982;5.928;2022-10-16T05:33:40;101045.13;;;13.59;79.15
66945;BME280;53853;51.982;5.928;2022-10-16T05:36:11;101049.81;;;13.57;79.13
66945;BME280;53853;51.982;5.928;2022-10-16T05:38:41;101042.13;;;13.54;79.36
66945;BME280;53853;51.982;5.928;2022-10-16T05:41:11;101054.84;;;13.52;79.24
66945;BME280;53853;51.982;5.928;2022-10-16T05:43:41;101055.81;;;13.51;79.24
66945;BME280;53853;51.982;5.928;2022-10-16T05:46:13;101059.69;;;13.48;79.34
66945;BME280;53853;51.982;5.928;2022-10-16T05:48:44;101063.69;;;13.44;79.73
66945;BME280;53853;51.982;5.928;2022-10-16T05:51:14;101071.88;;;13.43;79.70
66945;BME280;53853;51.982;5.928;2022-10-16T05:53:44;101075.53;;;13.41;79.81
66945;BME280;53853;51.982;5.928;2022-10-16T05:56:14;101081.91;;;13.40;79.94
66945;BME280;53853;51.982;5.928;2022-10-16T05:58:44;101092.09;;;13.37;79.90
66945;BME280;53853;51.982;5.928;2022-10-16T06:01:18;101090.59;;;13.34;80.14
66945;BME280;53853;51.982;5.928;2022-10-16T06:03:51;101094.38;;;13.32;80.16
66945;BME280;53853;51.982;5.928;2022-10-16T06:06:23;101098.25;;;13.29;80.09
66945;BME280;53853;51.982;5.928;2022-10-16T06:08:54;101103.91;;;13.26;80.13
66945;BME280;53853;51.982;5.928;2022-10-16T06:11:25;101106.59;;;13.26;80.31
66945;BME280;53853;51.982;5.928;2022-10-16T06:13:57;101102.56;;;13.22;80.68
66945;BME280;53853;51.982;5.928;2022-10-16T06:16:31;101110.41;;;13.23;80.29
66945;BME280;53853;51.982;5.928;2022-10-16T06:19:01;101110.41;;;13.23;80.50
66945;BME280;53853;51.982;5.928;2022-10-16T06:21:33;101113.75;;;13.26;80.49
66945;BME280;53853;51.982;5.928;2022-10-16T06:24:03;101116.97;;;13.29;80.52
66945;BME280;53853;51.982;5.928;2022-10-16T06:26:33;101115.81;;;13.32;80.74
66945;BME280;53853;51.982;5.928;2022-10-16T06:29:03;101120.53;;;13.38;80.63
66945;BME280;53853;51.982;5.928;2022-10-16T06:31:35;101120.22;;;13.41;80.89
66945;BME280;53853;51.982;5.928;2022-10-16T06:34:05;101121.44;;;13.47;80.90
66945;BME280;53853;51.982;5.928;2022-10-16T06:36:37;101123.47;;;13.53;80.82
66945;BME280;53853;51.982;5.928;2022-10-16T06:39:07;101122.13;;;13.57;80.74
66945;BME280;53853;51.982;5.928;2022-10-16T06:41:37;101130.50;;;13.62;80.79
66945;BME280;53853;51.982;5.928;2022-10-16T06:44:16;101131.69;;;13.68;80.66
66945;BME280;53853;51.982;5.928;2022-10-16T06:46:49;101144.59;;;13.72;80.62
66945;BME280;53853;51.982;5.928;2022-10-16T06:49:19;101150.97;;;13.80;80.68
66945;BME280;53853;51.982;5.928;2022-10-16T06:51:49;101151.50;;;13.83;80.45
66945;BME280;53853;51.982;5.928;2022-10-16T06:54:19;101164.41;;;13.88;80.58
66945;BME280;53853;51.982;5.928;2022-10-16T06:56:50;101161.91;;;13.94;80.31
66945;BME280;53853;51.982;5.928;2022-10-16T06:59:21;101171.81;;;14.02;79.61
66945;BME280;53853;51.982;5.928;2022-10-16T07:01:53;101166.13;;;14.05;79.50
66945;BME280;53853;51.982;5.928;2022-10-16T07:04:23;101184.38;;;14.10;79.65
66945;BME280;53853;51.982;5.928;2022-10-16T07:06:53;101180.53;;;14.12;79.68
66945;BME280;53853;51.982;5.928;2022-10-16T07:09:23;101180.19;;;14.16;79.53
66945;BME280;53853;51.982;5.928;2022-10-16T07:11:53;101186.06;;;14.19;79.43
66945;BME280;53853;51.982;5.928;2022-10-16T07:14:23;101182.22;;;14.22;79.29
66945;BME280;53853;51.982;5.928;2022-10-16T07:16:55;101193.78;;;14.30;79.17
66945;BME280;53853;51.982;5.928;2022-10-16T07:19:26;101204.00;;;14.35;78.89
66945;BME280;53853;51.982;5.928;2022-10-16T07:21:56;101205.38;;;14.39;78.73
66945;BME280;53853;51.982;5.928;2022-10-16T07:24:26;101205.03;;;14.42;78.86
66945;BME280;53853;51.982;5.928;2022-10-16T07:26:56;101210.91;;;14.46;78.55
66945;BME280;53853;51.982;5.928;2022-10-16T07:29:25;101226.16;;;14.45;78.64
66945;BME280;53853;51.982;5.928;2022-10-16T07:31:58;101225.81;;;14.48;78.35
66945;BME280;53853;51.982;5.928;2022-10-16T07:34:28;101234.53;;;14.50;78.23
66945;BME280;53853;51.982;5.928;2022-10-16T07:36:58;101242.41;;;14.52;78.29
66945;BME280;53853;51.982;5.928;2022-10-16T07:39:27;101251.66;;;14.58;78.12
66945;BME280;53853;51.982;5.928;2022-10-16T07:41:57;101253.00;;;14.62;78.07
66945;BME280;53853;51.982;5.928;2022-10-16T07:44:27;101247.81;;;14.68;78.21
66945;BME280;53853;51.982;5.928;2022-10-16T07:46:59;101259.91;;;14.73;78.50
66945;BME280;53853;51.982;5.928;2022-10-16T07:49:29;101256.72;;;14.77;78.10
66945;BME280;53853;51.982;5.928;2022-10-16T07:51:59;101254.84;;;14.86;78.33
66945;BME280;53853;51.982;5.928;2022-10-16T07:54:29;101261.56;;;14.98;77.94
66945;BME280;53853;51.982;5.928;2022-10-16T07:56:59;101264.78;;;15.10;77.07
66945;BME280;53853;51.982;5.928;2022-10-16T07:59:29;101258.56;;;15.18;76.19
66945;BME280;53853;51.982;5.928;2022-10-16T08:02:01;101269.78;;;15.21;76.53
66945;BME280;53853;51.982;5.928;2022-10-16T08:04:31;101272.13;;;15.25;76.32
66945;BME280;53853;51.982;5.928;2022-10-16T08:07:01;101272.78;;;15.27;76.61
66945;BME280;53853;51.982;5.928;2022-10-16T08:09:31;101276.16;;;15.37;76.72
66945;BME280;53853;51.982;5.928;2022-10-16T08:12:00;101278.13;;;15.43;75.41
66945;BME280;53853;51.982;5.928;2022-10-16T08:14:31;101275.09;;;15.54;75.35
66945;BME280;53853;51.982;5.928;2022-10-16T08:17:03;101281.09;;;15.65;75.78
66945;BME280;53853;51.982;5.928;2022-10-16T08:19:33;101277.56;;;15.72;76.13
66945;BME280;53853;51.982;5.928;2022-10-16T08:22:03;101284.31;;;15.77;76.17
66945;BME280;53853;51.982;5.928;2022-10-16T08:24:33;101293.34;;;15.84;74.65
66945;BME280;53853;51.982;5.928;2022-10-16T08:27:04;101300.19;;;15.94;74.77
66945;BME280;53853;51.982;5.928;2022-10-16T08:29:33;101290.56;;;16.00;73.49
66945;BME280;53853;51.982;5.928;2022-10-16T08:32:07;101308.69;;;16.06;73.15
66945;BME280;53853;51.982;5.928;2022-10-16T08:34:37;101302.66;;;16.04;73.60
66945;BME280;53853;51.982;5.928;2022-10-16T08:37:06;101309.56;;;16.07;73.04
66945;BME280;53853;51.982;5.928;2022-10-16T08:39:38;101313.91;;;16.08;73.52
66945;BME280;53853;51.982;5.928;2022-10-16T08:42:27;101309.88;;;16.12;73.69
66945;BME280;53853;51.982;5.928;2022-10-16T08:45:21;101307.88;;;16.06;72.91
66945;BME280;53853;51.982;5.928;2022-10-16T08:48:06;101325.88;;;16.05;72.94
66945;BME280;53853;51.982;5.928;2022-10-16T08:50:39;101324.00;;;16.06;72.28
66945;BME280;53853;51.982;5.928;2022-10-16T08:53:16;101317.63;;;16.07;72.38
66945;BME280;53853;51.982;5.928;2022-10-16T08:55:51;101327.50;;;16.06;72.33
66945;BME280;53853;51.982;5.928;2022-10-16T08:58:23;101328.38;;;16.07;72.30
66945;BME280;53853;51.982;5.928;2022-10-16T09:00:57;101339.78;;;16.09;71.91
66945;BME280;53853;51.982;5.928;2022-10-16T09:03:58;101338.78;;;16.10;71.41
66945;BME280;53853;51.982;5.928;2022-10-16T09:06:39;101343.47;;;16.08;71.91
66945;BME280;53853;51.982;5.928;2022-10-16T09:12:15;101351.88;;;16.13;72.02
66945;BME280;53853;51.982;5.928;2022-10-16T09:14:56;101354.72;;;16.20;72.07
66945;BME280;53853;51.982;5.928;2022-10-16T09:17:38;101358.88;;;16.22;71.65
66945;BME280;53853;51.982;5.928;2022-10-16T09:23:18;101363.56;;;16.28;70.53
66945;BME280;53853;51.982;5.928;2022-10-16T09:25:50;101366.94;;;16.30;70.65
66945;BME280;53853;51.982;5.928;2022-10-16T09:28:24;101368.25;;;16.35;70.40
66945;BME280;53853;51.982;5.928;2022-10-16T09:30:54;101370.75;;;16.36;70.06
66945;BME280;53853;51.982;5.928;2022-10-16T09:33:28;101372.63;;;16.36;70.44
66945;BME280;53853;51.982;5.928;2022-10-16T09:36:03;101376.78;;;16.38;70.40
66945;BME280;53853;51.982;5.928;2022-10-16T09:38:35;101372.09;;;16.40;69.95
66945;BME280;53853;51.982;5.928;2022-10-16T09:41:15;101377.13;;;16.43;69.46
66945;BME280;53853;51.982;5.928;2022-10-16T09:43:53;101382.16;;;16.46;70.32
66945;BME280;53853;51.982;5.928;2022-10-16T09:46:27;101388.03;;;16.50;69.77
66945;BME280;53853;51.982;5.928;2022-10-16T09:48:59;101390.53;;;16.52;70.08
66945;BME280;53853;51.982;5.928;2022-10-16T09:51:34;101387.69;;;16.53;69.77
66945;BME280;53853;51.982;5.928;2022-10-16T09:54:15;101393.72;;;16.55;68.94
66945;BME280;53853;51.982;5.928;2022-10-16T09:56:48;101400.78;;;16.56;69.32
66945;BME280;53853;51.982;5.928;2022-10-16T09:59:22;101401.44;;;16.58;69.37
66945;BME280;53853;51.982;5.928;2022-10-16T10:01:54;101399.75;;;16.57;69.47
66945;BME280;53853;51.982;5.928;2022-10-16T10:04:40;101393.34;;;16.58;69.85
66945;BME280;53853;51.982;5.928;2022-10-16T10:07:23;101406.13;;;16.64;70.03
66945;BME280;53853;51.982;5.928;2022-10-16T10:09:56;101410.78;;;16.71;69.50
66945;BME280;53853;51.982;5.928;2022-10-16T10:12:28;101411.75;;;16.78;69.34
66945;BME280;53853;51.982;5.928;2022-10-16T10:15:05;101407.34;;;16.85;69.40
66945;BME280;53853;51.982;5.928;2022-10-16T10:17:46;101411.88;;;16.93;68.17
66945;BME280;53853;51.982;5.928;2022-10-16T10:20:24;101410.31;;;16.98;68.33
66945;BME280;53853;51.982;5.928;2022-10-16T10:22:57;101408.47;;;16.99;68.36
66945;BME280;53853;51.982;5.928;2022-10-16T10:25:40;101406.09;;;17.04;68.63
66945;BME280;53853;51.982;5.928;2022-10-16T10:28:44;101416.97;;;17.11;67.50
66945;BME280;53853;51.982;5.928;2022-10-16T10:31:23;101405.84;;;17.14;66.92
66945;BME280;53853;51.982;5.928;2022-10-16T10:34:00;101412.19;;;17.21;66.25
66945;BME280;53853;51.982;5.928;2022-10-16T10:36:35;101419.38;;;17.29;66.63
66945;BME280;53853;51.982;5.928;2022-10-16T10:39:13;101420.03;;;17.31;65.87
66945;BME280;53853;51.982;5.928;2022-10-16T10:42:01;101430.75;;;17.39;65.83
66945;BME280;53853;51.982;5.928;2022-10-16T10:44:52;101424.47;;;17.47;65.99
66945;BME280;53853;51.982;5.928;2022-10-16T10:47:30;101425.38;;;17.54;65.05
66945;BME280;53853;51.982;5.928;2022-10-16T10:50:10;101432.09;;;17.58;64.41
66945;BME280;53853;51.982;5.928;2022-10-16T10:52:51;101424.31;;;17.63;64.76
66945;BME280;53853;51.982;5.928;2022-10-16T10:55:33;101422.56;;;17.70;63.38
66945;BME280;53853;51.982;5.928;2022-10-16T10:58:22;101425.72;;;17.74;63.98
66945;BME280;53853;51.982;5.928;2022-10-16T11:01:00;101428.16;;;17.84;62.76
66945;BME280;53853;51.982;5.928;2022-10-16T11:04:00;101432.75;;;17.98;62.45
66945;BME280;53853;51.982;5.928;2022-10-16T11:06:39;101439.38;;;18.10;60.55
66945;BME280;53853;51.982;5.928;2022-10-16T11:09:13;101447.28;;;18.12;61.34
66945;BME280;53853;51.982;5.928;2022-10-16T11:11:50;101446.75;;;18.17;58.71
66945;BME280;53853;51.982;5.928;2022-10-16T11:14:25;101439.59;;;18.24;60.50
66945;BME280;53853;51.982;5.928;2022-10-16T11:17:01;101433.06;;;18.33;58.44
66945;BME280;53853;51.982;5.928;2022-10-16T11:19:37;101435.38;;;18.36;57.69
66945;BME280;53853;51.982;5.928;2022-10-16T11:22:13;101444.97;;;18.39;59.03
66945;BME280;53853;51.982;5.928;2022-10-16T11:24:48;101455.03;;;18.45;57.86
66945;BME280;53853;51.982;5.928;2022-10-16T11:27:35;101452.16;;;18.46;58.45
66945;BME280;53853;51.982;5.928;2022-10-16T11:30:26;101465.25;;;18.50;57.77
66945;BME280;53853;51.982;5.928;2022-10-16T11:36:11;101459.00;;;18.49;56.07
66945;BME280;53853;51.982;5.928;2022-10-16T11:38:48;101467.47;;;18.46;56.96
66945;BME280;53853;51.982;5.928;2022-10-16T11:41:27;101460.69;;;18.50;57.81
66945;BME280;53853;51.982;5.928;2022-10-16T11:44:16;101451.28;;;18.61;57.71
66945;BME280;53853;51.982;5.928;2022-10-16T11:46:53;101457.97;;;18.65;56.11
66945;BME280;53853;51.982;5.928;2022-10-16T11:49:31;101463.84;;;18.69;55.57
66945;BME280;53853;51.982;5.928;2022-10-16T11:52:07;101463.66;;;18.70;56.59
66945;BME280;53853;51.982;5.928;2022-10-16T11:54:45;101471.38;;;18.73;54.76
66945;BME280;53853;51.982;5.928;2022-10-16T11:57:20;101467.00;;;18.72;55.31
66945;BME280;53853;51.982;5.928;2022-10-16T11:59:57;101466.81;;;18.74;55.43
66945;BME280;53853;51.982;5.928;2022-10-16T12:02:46;101475.38;;;18.77;54.71
66945;BME280;53853;51.982;5.928;2022-10-16T12:05:24;101469.78;;;18.79;56.08
66945;BME280;53853;51.982;5.928;2022-10-16T12:08:06;101475.81;;;18.81;56.20
66945;BME280;53853;51.982;5.928;2022-10-16T12:10:40;101475.81;;;18.81;55.21
66945;BME280;53853;51.982;5.928;2022-10-16T12:13:29;101479.38;;;18.81;55.36
66945;BME280;53853;51.982;5.928;2022-10-16T12:16:21;101487.13;;;18.85;55.09
66945;BME280;53853;51.982;5.928;2022-10-16T12:19:10;101489.31;;;18.81;54.94
66945;BME280;53853;51.982;5.928;2022-10-16T12:21:41;101487.66;;;18.80;55.01
66945;BME280;53853;51.982;5.928;2022-10-16T12:24:32;101493.91;;;18.80;55.10
66945;BME280;53853;51.982;5.928;2022-10-16T12:27:03;101485.59;;;18.82;56.23
66945;BME280;53853;51.982;5.928;2022-10-16T12:29:36;101491.50;;;18.86;56.96
66945;BME280;53853;51.982;5.928;2022-10-16T12:32:32;101477.03;;;18.93;56.79
66945;BME280;53853;51.982;5.928;2022-10-16T12:35:04;101486.66;;;18.96;54.82
66945;BME280;53853;51.982;5.928;2022-10-16T12:37:36;101491.66;;;18.99;53.08
66945;BME280;53853;51.982;5.928;2022-10-16T12:40:13;101490.38;;;18.95;52.16
66945;BME280;53853;51.982;5.928;2022-10-16T12:42:44;101495.50;;;18.90;52.67
66945;BME280;53853;51.982;5.928;2022-10-16T12:45:26;101503.59;;;18.90;54.20
66945;BME280;53853;51.982;5.928;2022-10-16T12:48:01;101498.19;;;18.90;53.27
66945;BME280;53853;51.982;5.928;2022-10-16T12:50:33;101505.66;;;18.88;52.66
66945;BME280;53853;51.982;5.928;2022-10-16T12:53:16;101497.44;;;18.81;53.75
66945;BME280;53853;51.982;5.928;2022-10-16T12:55:56;101502.75;;;18.74;53.29
66945;BME280;53853;51.982;5.928;2022-10-16T13:01:34;101503.59;;;18.75;54.47
66945;BME280;53853;51.982;5.928;2022-10-16T13:04:32;101498.66;;;18.78;54.49
66945;BME280;53853;51.982;5.928;2022-10-16T13:07:19;101502.00;;;18.80;54.53
66945;BME280;53853;51.982;5.928;2022-10-16T13:09:59;101509.47;;;18.78;53.25
66945;BME280;53853;51.982;5.928;2022-10-16T13:13:12;101499.66;;;18.77;52.39
66945;BME280;53853;51.982;5.928;2022-10-16T13:15:55;101500.72;;;18.76;52.34
66945;BME280;53853;51.982;5.928;2022-10-16T13:18:35;101498.19;;;18.75;52.38
66945;BME280;53853;51.982;5.928;2022-10-16T13:21:28;101501.72;;;18.75;53.26
66945;BME280;53853;51.982;5.928;2022-10-16T13:24:02;101503.41;;;18.76;52.89
66945;BME280;53853;51.982;5.928;2022-10-16T13:26:43;101500.53;;;18.78;53.58
66945;BME280;53853;51.982;5.928;2022-10-16T13:29:19;101499.50;;;18.79;53.64
66945;BME280;53853;51.982;5.928;2022-10-16T13:31:49;101502.19;;;18.79;53.86
66945;BME280;53853;51.982;5.928;2022-10-16T13:34:21;101504.69;;;18.80;54.63
66945;BME280;53853;51.982;5.928;2022-10-16T13:36:54;101513.28;;;18.84;55.07
66945;BME280;53853;51.982;5.928;2022-10-16T13:39:25;101507.69;;;18.86;55.66